Startpagina
METAR-TAF:

METAR-TAF

Vliegvelden :

Peking, China

Internationale Luchthaven van Peking

breedte: 39-56N, lengte: 116-17E, hoogte: 55 m

Actueel weer

Dit bericht is 23 minuten geleden gemaakt, om 13:00 UTC
Wind 2 kt uit variabele richting
Temperatuur 14°C
Vochtigheid 82%
Druk 1013 hPa
Zicht 10 km of meer
geen wolken onder 1500 m en geen cumulonimbus

METAR: ZBAA 191300Z VRB01MPS CAVOK 14/11 Q1013 NOSIG

Tijdstip: 21:23 (13:23 UTC)

Verwachting

Dit bericht is 3 uur en het 53 minuten geleden gemaakt, om 09:30 UTC
Verwachting geldig van 19 om 12 UTC tot 20 om 12 UTC
Wind 8 kt uit het noorden
Zicht 10 km of meer
geen wolken onder 1500 m en geen cumulonimbus

TAF: ZBAA 190930Z 1912/2012 36004MPS CAVOK TX30/2007Z TN14/1921Z

Waarnemingen en weersverwachtingen van meer dan 4000 vliegvelden (METAR en TAF).

De beschikbare stations zijn de gele en rode punten op de kaart.

Ga met uw muis naar het station om de naam te zien.

Klik dan om waarnemingen en weersverwachtingen te zien.

kaart wijzigen: klik op de groene knoppen met een zwart kruis om in te zoomen, op de groene knop met een streepje om uit te zoomen of op de groene pijlen voor aangrenzende kaarten.


METAR-TAF: